Mn Pelican — FMLR — position and weather

sailwx.info

Track history (hours):
 
Tides and Currents Weather Stations Pressure Air Temp Water Temp Dewpoint Dewpoint Depression Visibility Wind Speed Wind Dir Waves Ship Positions

Mn Pelican

Last reported at 2015-Sep-05 11:33 UTC. Time now 2015-Sep-05 12:24 UTC.
Position N 43°34' E 010°19'.

Length 155 m; draft 6.4 m.

Type: Ship. MMSI: 228315700.

Date/timePositionNaut miles runAvg speedWind from/ knotsBaromVisibWave heightAir tempDewpointWater temp
2015-Sep-05 11:33N 43°34' E 010°19'0 0.0
2015-Sep-05 10:33N 43°34' E 010°19'0 0.0
2015-Sep-05 09:32N 43°34' E 010°19'0 0.0
2015-Sep-05 08:32N 43°34' E 010°19'0 0.0
2015-Sep-05 07:31N 43°34' E 010°19'0 0.0
2015-Sep-05 06:31N 43°34' E 010°19'0 0.0
2015-Sep-05 05:28N 43°34' E 010°19'2 1.7
2015-Sep-05 04:34N 43°33' E 010°17'1312.6
2015-Sep-05 03:34N 43°22' E 010°08'1717.0
2015-Sep-05 02:34N 43°06' E 010°02'13117.7
2015-Sep-04 19:08N 40°56' E 009°37'4 5.9
2015-Sep-04 18:29N 40°56' E 009°32'0 0.0
2015-Sep-04 17:23N 40°56' E 009°32'0 0.0
2015-Sep-04 16:32N 40°56' E 009°32'0 0.0
2015-Sep-04 15:22N 40°56' E 009°32'0 0.0
2015-Sep-04 14:31N 40°56' E 009°32'0 0.0
2015-Sep-04 13:24N 40°56' E 009°32'0 0.0
2015-Sep-04 12:33N 40°56' E 009°32'0 0.0
2015-Sep-04 11:29N 40°56' E 009°32'0 0.0
2015-Sep-04 10:20N 40°56' E 009°32'0 0.0
2015-Sep-04 09:32N 40°56' E 009°32'0 0.0
2015-Sep-04 08:33N 40°56' E 009°32'0 0.0
2015-Sep-04 07:30N 40°56' E 009°32'0 0.0
2015-Sep-04 06:23N 40°56' E 009°32'0 0.0
2015-Sep-04 05:32N 40°56' E 009°32'2 2.0
2015-Sep-04 04:33N 40°55' E 009°35'11615.5
2015-Sep-03 21:04N 42°50' E 009°54'917.1
2015-Sep-03 20:33N 42°59' E 009°58'1717.3
2015-Sep-03 19:33N 43°15' E 010°06'1717.2
2015-Sep-03 18:33N 43°31' E 010°14'5 4.7
2015-Sep-03 17:33N 43°34' E 010°19'0 0.0
2015-Sep-03 16:32N 43°34' E 010°19'0 0.0
2015-Sep-03 15:32N 43°34' E 010°19'0 0.0
2015-Sep-03 14:31N 43°34' E 010°19'0 0.0
2015-Sep-03 13:31N 43°34' E 010°19'0 0.0
2015-Sep-03 12:33N 43°34' E 010°19'0 0.0
2015-Sep-03 11:33N 43°34' E 010°19'3 2.9
2015-Sep-03 10:33N 43°32' E 010°16'1716.7
2015-Sep-03 09:33N 43°17' E 010°07'12 0.6
2015-Sep-02 13:20N 43°06' E 010°01'1620.9
2015-Sep-02 12:34N 43°21' E 010°08'1111.4
2015-Sep-02 11:34N 43°31' E 010°14'5 4.6
2015-Sep-02 10:33N 43°34' E 010°19'0 0.0
2015-Sep-02 09:33N 43°34' E 010°19'0 0.0
2015-Sep-02 08:33N 43°34' E 010°19'0 0.0
2015-Sep-02 07:33N 43°34' E 010°19'12912.5
2015-Sep-01 21:14N 41°28' E 009°44'3317.5
2015-Sep-01 19:21N 40°56' E 009°36'57 3.0
2015-Sep-01 00:31N 41°52' E 009°45'2416.4
2015-Aug-31 23:03N 42°16' E 009°45'815.9
2015-Aug-31 22:33N 42°24' E 009°45'1815.9
2015-Aug-31 21:24N 42°42' E 009°51'1716.7
2015-Aug-31 20:25N 42°58' E 009°58'1517.3
2015-Aug-31 19:33N 43°12' E 010°04'1716.7
2015-Aug-31 18:32N 43°28' E 010°11'8 1.3
2015-Aug-31 12:21N 43°34' E 010°19'0 0.0
2015-Aug-31 03:05N 43°34' E 010°19'0 0.0
2015-Aug-31 02:29N 43°34' E 010°19'0 0.0
2015-Aug-31 00:19N 43°34' E 010°19'0 0.0
2015-Aug-30 23:31N 43°34' E 010°19'0 0.0
2015-Aug-30 22:33N 43°34' E 010°19'0 0.0
2015-Aug-30 21:15N 43°34' E 010°19'0 0.0
2015-Aug-30 17:07N 43°34' E 010°19'0 0.0
2015-Aug-30 15:33N 43°34' E 010°19'0 0.0
2015-Aug-30 13:32N 43°34' E 010°19'0 0.0
2015-Aug-30 12:32N 43°34' E 010°19'30 3.0
2015-Aug-30 02:33N 43°07' E 010°02'5 0.2
2015-Aug-28 19:27N 43°12' E 010°04'1517.0
2015-Aug-28 18:33N 43°26' E 010°11'10 9.6
2015-Aug-28 17:30N 43°34' E 010°19'0 0.0
2015-Aug-28 16:33N 43°34' E 010°19'0 0.0
2015-Aug-28 15:26N 43°34' E 010°19'0 0.0
2015-Aug-28 14:33N 43°34' E 010°19'0 0.0
2015-Aug-28 13:33N 43°34' E 010°19'0 0.0
2015-Aug-28 12:33N 43°34' E 010°19'0 0.0
2015-Aug-28 11:33N 43°34' E 010°19'0 0.0
2015-Aug-28 09:17N 43°34' E 010°19'0 0.0
2015-Aug-28 08:33N 43°34' E 010°19'39 6.1
2015-Aug-28 02:06N 42°58' E 009°58'2817.8
2015-Aug-28 00:33N 42°32' E 009°47'62 2.1
2015-Aug-26 18:13N 43°31' E 010°13'6 1.1
2015-Aug-26 13:16N 43°34' E 010°19'0 0.0
2015-Aug-26 12:31N 43°34' E 010°19'  
Track history (hours):
 
Tides and Currents Weather Stations Pressure Air Temp Water Temp Dewpoint Dewpoint Depression Visibility Wind Speed Wind Dir Waves Ship Positions

Mn Pelican

Last reported at 2015-Sep-05 11:33 UTC. Time now 2015-Sep-05 12:24 UTC.
Position N 43°34' E 010°19'.

Length 155 m; draft 6.4 m.

Type: Ship. MMSI: 228315700.

Date/timePositionNaut miles runAvg speedWind from/ knotsBaromVisibWave heightAir tempDewpointWater temp
2015-Sep-05 11:33N 43°34' E 010°19'0 0.0
2015-Sep-05 10:33N 43°34' E 010°19'0 0.0
2015-Sep-05 09:32N 43°34' E 010°19'0 0.0
2015-Sep-05 08:32N 43°34' E 010°19'0 0.0
2015-Sep-05 07:31N 43°34' E 010°19'0 0.0
2015-Sep-05 06:31N 43°34' E 010°19'0 0.0
2015-Sep-05 05:28N 43°34' E 010°19'2 1.7
2015-Sep-05 04:34N 43°33' E 010°17'1312.6
2015-Sep-05 03:34N 43°22' E 010°08'1717.0
2015-Sep-05 02:34N 43°06' E 010°02'13117.7
2015-Sep-04 19:08N 40°56' E 009°37'4 5.9
2015-Sep-04 18:29N 40°56' E 009°32'0 0.0
2015-Sep-04 17:23N 40°56' E 009°32'0 0.0
2015-Sep-04 16:32N 40°56' E 009°32'0 0.0
2015-Sep-04 15:22N 40°56' E 009°32'0 0.0
2015-Sep-04 14:31N 40°56' E 009°32'0 0.0
2015-Sep-04 13:24N 40°56' E 009°32'0 0.0
2015-Sep-04 12:33N 40°56' E 009°32'0 0.0
2015-Sep-04 11:29N 40°56' E 009°32'0 0.0
2015-Sep-04 10:20N 40°56' E 009°32'0 0.0
2015-Sep-04 09:32N 40°56' E 009°32'0 0.0
2015-Sep-04 08:33N 40°56' E 009°32'0 0.0
2015-Sep-04 07:30N 40°56' E 009°32'0 0.0
2015-Sep-04 06:23N 40°56' E 009°32'0 0.0
2015-Sep-04 05:32N 40°56' E 009°32'2 2.0
2015-Sep-04 04:33N 40°55' E 009°35'11615.5
2015-Sep-03 21:04N 42°50' E 009°54'917.1
2015-Sep-03 20:33N 42°59' E 009°58'1717.3
2015-Sep-03 19:33N 43°15' E 010°06'1717.2
2015-Sep-03 18:33N 43°31' E 010°14'5 4.7
2015-Sep-03 17:33N 43°34' E 010°19'0 0.0
2015-Sep-03 16:32N 43°34' E 010°19'0 0.0
2015-Sep-03 15:32N 43°34' E 010°19'0 0.0
2015-Sep-03 14:31N 43°34' E 010°19'0 0.0
2015-Sep-03 13:31N 43°34' E 010°19'0 0.0
2015-Sep-03 12:33N 43°34' E 010°19'0 0.0
2015-Sep-03 11:33N 43°34' E 010°19'3 2.9
2015-Sep-03 10:33N 43°32' E 010°16'1716.7
2015-Sep-03 09:33N 43°17' E 010°07'12 0.6
2015-Sep-02 13:20N 43°06' E 010°01'1620.9
2015-Sep-02 12:34N 43°21' E 010°08'1111.4
2015-Sep-02 11:34N 43°31' E 010°14'5 4.6
2015-Sep-02 10:33N 43°34' E 010°19'0 0.0
2015-Sep-02 09:33N 43°34' E 010°19'0 0.0
2015-Sep-02 08:33N 43°34' E 010°19'0 0.0
2015-Sep-02 07:33N 43°34' E 010°19'12912.5
2015-Sep-01 21:14N 41°28' E 009°44'3317.5
2015-Sep-01 19:21N 40°56' E 009°36'57 3.0
2015-Sep-01 00:31N 41°52' E 009°45'2416.4
2015-Aug-31 23:03N 42°16' E 009°45'815.9
2015-Aug-31 22:33N 42°24' E 009°45'1815.9
2015-Aug-31 21:24N 42°42' E 009°51'1716.7
2015-Aug-31 20:25N 42°58' E 009°58'1517.3
2015-Aug-31 19:33N 43°12' E 010°04'1716.7
2015-Aug-31 18:32N 43°28' E 010°11'8 1.3
2015-Aug-31 12:21N 43°34' E 010°19'0 0.0
2015-Aug-31 03:05N 43°34' E 010°19'0 0.0
2015-Aug-31 02:29N 43°34' E 010°19'0 0.0
2015-Aug-31 00:19N 43°34' E 010°19'0 0.0
2015-Aug-30 23:31N 43°34' E 010°19'0 0.0
2015-Aug-30 22:33N 43°34' E 010°19'0 0.0
2015-Aug-30 21:15N 43°34' E 010°19'0 0.0
2015-Aug-30 17:07N 43°34' E 010°19'0 0.0
2015-Aug-30 15:33N 43°34' E 010°19'0 0.0
2015-Aug-30 13:32N 43°34' E 010°19'0 0.0
2015-Aug-30 12:32N 43°34' E 010°19'30 3.0
2015-Aug-30 02:33N 43°07' E 010°02'5 0.2
2015-Aug-28 19:27N 43°12' E 010°04'1517.0
2015-Aug-28 18:33N 43°26' E 010°11'10 9.6
2015-Aug-28 17:30N 43°34' E 010°19'0 0.0
2015-Aug-28 16:33N 43°34' E 010°19'0 0.0
2015-Aug-28 15:26N 43°34' E 010°19'0 0.0
2015-Aug-28 14:33N 43°34' E 010°19'0 0.0
2015-Aug-28 13:33N 43°34' E 010°19'0 0.0
2015-Aug-28 12:33N 43°34' E 010°19'0 0.0
2015-Aug-28 11:33N 43°34' E 010°19'0 0.0
2015-Aug-28 09:17N 43°34' E 010°19'0 0.0
2015-Aug-28 08:33N 43°34' E 010°19'39 6.1
2015-Aug-28 02:06N 42°58' E 009°58'2817.8
2015-Aug-28 00:33N 42°32' E 009°47'62 2.1
2015-Aug-26 18:13N 43°31' E 010°13'6 1.1
2015-Aug-26 13:16N 43°34' E 010°19'0 0.0
2015-Aug-26 12:31N 43°34' E 010°19'  

Dump ship's entire track history